createdAt,value
2023-05-08T00:00:44.323Z,6.43
2023-05-08T00:15:46.459Z,6.90
2023-05-08T00:30:48.330Z,6.27
2023-05-08T00:45:50.486Z,6.43
2023-05-08T01:00:55.648Z,6.33
2023-05-08T01:16:12.298Z,7.63
2023-05-08T01:31:23.197Z,6.00
2023-05-08T01:46:28.342Z,6.40
2023-05-08T02:01:33.455Z,6.23
2023-05-08T02:16:37.930Z,5.97
2023-05-08T02:31:41.568Z,5.97
2023-05-08T02:47:05.673Z,6.40
2023-05-08T03:02:40.668Z,6.47
2023-05-08T03:17:45.136Z,5.83
2023-05-08T03:32:48.296Z,5.67
2023-05-08T03:47:53.955Z,5.57
2023-05-08T04:03:03.070Z,5.97
2023-05-08T04:18:15.117Z,5.90
2023-05-08T04:33:18.708Z,5.30
2023-05-08T04:48:20.661Z,5.43
2023-05-08T05:03:22.574Z,4.97
2023-05-08T05:18:24.476Z,4.50
2023-05-08T05:33:26.368Z,4.27
2023-05-08T05:48:28.255Z,4.60
2023-05-08T06:03:30.205Z,4.80
2023-05-08T06:18:32.092Z,4.70
2023-05-08T06:33:33.866Z,4.50
2023-05-08T06:48:35.842Z,6.50
2023-05-08T07:03:37.764Z,6.60
2023-05-08T07:18:39.645Z,6.60
2023-05-08T07:33:41.464Z,7.83
2023-05-08T07:48:43.769Z,6.13
2023-05-08T08:03:46.313Z,5.30
2023-05-08T08:18:48.282Z,4.40
2023-05-08T08:33:50.059Z,5.70
2023-05-08T08:48:54.823Z,5.03
2023-05-08T09:04:00.063Z,5.13
2023-05-08T09:19:04.569Z,5.43
2023-05-08T09:34:08.682Z,4.80
2023-05-08T09:49:18.480Z,6.10
2023-05-08T10:04:34.440Z,5.50
2023-05-08T10:19:42.325Z,5.17
2023-05-08T10:34:46.852Z,5.27
2023-05-08T10:50:04.346Z,5.70
2023-05-08T11:05:16.625Z,5.80
2023-05-08T11:20:24.696Z,5.47
2023-05-08T11:35:42.752Z,5.07
2023-05-08T11:50:44.764Z,5.30
2023-05-08T12:05:47.826Z,4.05
2023-05-08T12:21:00.176Z,4.43
2023-05-08T12:36:02.955Z,4.27
2023-05-08T12:51:05.658Z,3.97
2023-05-08T13:06:08.207Z,4.40
2023-05-08T13:21:10.128Z,4.63
2023-05-08T13:36:12.028Z,5.30
2023-05-08T13:51:13.808Z,5.70
2023-05-08T14:06:15.749Z,5.10
2023-05-08T14:21:17.623Z,4.87
2023-05-08T14:36:19.661Z,4.93
2023-05-08T14:51:21.471Z,4.87
2023-05-08T15:06:25.385Z,4.60
2023-05-08T15:21:27.524Z,3.87
2023-05-08T15:36:31.651Z,3.33
2023-05-08T15:51:33.568Z,3.60
2023-05-08T16:06:35.843Z,4.37
2023-05-08T16:21:37.841Z,4.60
2023-05-08T16:36:39.748Z,4.77
2023-05-08T16:51:41.737Z,4.70
2023-05-08T17:06:43.690Z,4.73
2023-05-08T17:21:45.659Z,5.30
2023-05-08T17:36:47.597Z,6.00
2023-05-08T17:51:49.559Z,5.63
2023-05-08T18:06:51.925Z,5.73
2023-05-08T18:21:53.881Z,5.43
2023-05-08T18:36:57.542Z,6.10
2023-05-08T18:52:00.134Z,4.90
2023-05-08T19:07:02.113Z,5.47
2023-05-08T19:22:04.027Z,5.97
2023-05-08T19:37:06.689Z,5.30
2023-05-08T19:52:08.925Z,6.87
2023-05-08T20:07:11.170Z,5.10
2023-05-08T20:22:13.134Z,4.90
2023-05-08T20:37:16.143Z,4.90
2023-05-08T20:52:18.119Z,4.40
2023-05-08T21:07:20.160Z,4.80
2023-05-08T21:22:22.109Z,5.10
2023-05-08T21:37:24.168Z,3.73
2023-05-08T21:52:26.229Z,3.90
2023-05-08T22:07:28.295Z,3.67
2023-05-08T22:22:30.316Z,3.30
2023-05-08T22:37:32.339Z,3.10
2023-05-08T22:52:38.480Z,3.37
2023-05-08T23:07:41.381Z,3.10
2023-05-08T23:22:43.410Z,3.80
